Time;durP1;ratioP1;P1;durP2;ratioP2;P2;SDS_P1;SDS_P2;PMS_P1;PMS_P2;Temp;Humidity;BMP_temperature;BMP_pressure;BME280_temperature;BME280_humidity;BME280_pressure;Samples;Min_cycle;Max_cycle;Signal;HPM_P1;HPM_P2
2024/01/20 00:01:21;;;;;;;11.82;4.15;;;;;;;;;;5007289;28;20025;-75
2024/01/20 00:03:47;;;;;;;12.27;4.40;;;;;;;;;;5004324;28;20042;-75
2024/01/20 00:06:13;;;;;;;12.98;3.95;;;;;;;;;;4999855;28;20023;-75
2024/01/20 00:08:39;;;;;;;13.63;4.10;;;;;;;;;;5001166;28;20483;-75
2024/01/20 00:11:06;;;;;;;18.60;4.72;;;;;;;;;;5000930;28;20018;-75
2024/01/20 00:13:32;;;;;;;15.52;4.05;;;;;;;;;;5005483;28;20026;-75
2024/01/20 00:15:58;;;;;;;11.45;4.05;;;;;;;;;;4997112;28;20022;-75
2024/01/20 00:18:24;;;;;;;13.10;4.40;;;;;;;;;;5010395;28;20030;-75
2024/01/20 00:20:50;;;;;;;11.63;5.38;;;;;;;;;;5009680;28;20036;-76
2024/01/20 00:23:16;;;;;;;17.13;4.95;;;;;;;;;;5003880;28;20062;-74
2024/01/20 00:25:43;;;;;;;11.40;5.00;;;;;;;;;;5005550;28;20026;-74
2024/01/20 00:28:09;;;;;;;8.20;4.80;;;;;;;;;;5008883;28;20026;-75
2024/01/20 00:30:35;;;;;;;14.40;6.63;;;;;;;;;;5009270;28;20060;-75
2024/01/20 00:33:01;;;;;;;13.85;5.80;;;;;;;;;;5011188;28;20486;-75
2024/01/20 00:35:27;;;;;;;17.40;6.82;;;;;;;;;;5008360;28;20038;-75
2024/01/20 00:37:54;;;;;;;13.48;5.55;;;;;;;;;;5004307;28;20045;-75
2024/01/20 00:40:20;;;;;;;14.50;5.65;;;;;;;;;;5006812;28;22550;-75
2024/01/20 00:42:46;;;;;;;16.45;5.88;;;;;;;;;;5008751;28;20486;-75
2024/01/20 00:45:12;;;;;;;12.45;5.97;;;;;;;;;;5008143;28;20061;-74
2024/01/20 00:47:38;;;;;;;13.52;6.35;;;;;;;;;;5006015;28;20037;-75
2024/01/20 00:50:05;;;;;;;14.60;5.85;;;;;;;;;;4999868;28;20037;-75
2024/01/20 00:52:31;;;;;;;14.88;6.85;;;;;;;;;;5007252;28;20427;-74
2024/01/20 00:54:57;;;;;;;21.38;5.97;;;;;;;;;;5011321;28;20101;-75
2024/01/20 00:57:23;;;;;;;14.13;6.38;;;;;;;;;;5006295;28;20403;-75
2024/01/20 00:59:49;;;;;;;15.68;6.75;;;;;;;;;;5005812;28;20099;-75
2024/01/20 01:02:18;;;;;;;17.05;6.28;;;;;;;;;;5010385;28;20123;-75
2024/01/20 01:04:44;;;;;;;18.17;6.88;;;;;;;;;;5007163;28;20113;-75
2024/01/20 01:07:10;;;;;;;20.63;7.00;;;;;;;;;;5012522;28;20390;-75
2024/01/20 01:09:36;;;;;;;13.70;6.70;;;;;;;;;;5008842;28;20030;-75
2024/01/20 01:12:03;;;;;;;12.23;5.97;;;;;;;;;;5003295;28;20565;-75
2024/01/20 01:14:29;;;;;;;15.38;6.18;;;;;;;;;;5007669;28;20052;-75
2024/01/20 01:16:55;;;;;;;14.45;7.15;;;;;;;;;;5005397;28;20084;-75
2024/01/20 01:19:21;;;;;;;14.90;6.57;;;;;;;;;;5004895;28;20038;-75
2024/01/20 01:21:47;;;;;;;16.92;6.72;;;;;;;;;;5006767;28;20124;-75
2024/01/20 01:24:13;;;;;;;17.52;6.65;;;;;;;;;;5010310;28;20037;-75
2024/01/20 01:26:39;;;;;;;16.23;7.13;;;;;;;;;;5005314;28;20104;-75
2024/01/20 01:29:05;;;;;;;17.42;7.32;;;;;;;;;;5006753;28;20026;-75
2024/01/20 01:31:31;;;;;;;12.55;6.43;;;;;;;;;;5004320;28;20048;-75
2024/01/20 01:33:57;;;;;;;12.60;6.15;;;;;;;;;;5007772;28;20064;-75
2024/01/20 01:36:24;;;;;;;13.18;5.68;;;;;;;;;;5005877;28;20491;-75
2024/01/20 01:38:50;;;;;;;17.85;7.00;;;;;;;;;;5007675;28;20101;-75
2024/01/20 01:41:16;;;;;;;21.13;7.32;;;;;;;;;;5004787;28;20753;-75
2024/01/20 01:43:42;;;;;;;12.45;6.07;;;;;;;;;;5002103;28;20038;-75
2024/01/20 01:46:09;;;;;;;16.83;6.40;;;;;;;;;;5009361;28;20026;-75
2024/01/20 01:48:35;;;;;;;22.20;7.03;;;;;;;;;;5007237;28;20450;-75
2024/01/20 01:51:04;;;;;;;15.15;7.70;;;;;;;;;;5003624;28;20033;-75
2024/01/20 01:53:31;;;;;;;15.02;6.75;;;;;;;;;;5009208;28;20048;-75
2024/01/20 01:55:59;;;;;;;18.45;7.22;;;;;;;;;;5012978;28;20040;-75
2024/01/20 01:58:26;;;;;;;13.40;6.32;;;;;;;;;;5008286;28;20045;-75
2024/01/20 02:00:52;;;;;;;16.15;7.72;;;;;;;;;;5010945;28;20129;-75
2024/01/20 02:03:18;;;;;;;17.33;7.15;;;;;;;;;;4998788;28;20038;-75
2024/01/20 02:05:44;;;;;;;12.77;7.20;;;;;;;;;;5006519;28;20033;-75
2024/01/20 02:08:10;;;;;;;22.23;8.93;;;;;;;;;;5004740;28;20034;-75
2024/01/20 02:10:37;;;;;;;12.43;6.40;;;;;;;;;;5005809;28;20416;-75
2024/01/20 02:13:03;;;;;;;18.88;7.70;;;;;;;;;;5005700;28;20045;-75
2024/01/20 02:15:30;;;;;;;17.00;8.65;;;;;;;;;;5006071;28;20041;-75
2024/01/20 02:17:56;;;;;;;20.65;7.72;;;;;;;;;;5000732;28;20041;-75
2024/01/20 02:20:23;;;;;;;17.08;7.80;;;;;;;;;;5003350;28;20038;-75
2024/01/20 02:22:49;;;;;;;15.25;9.35;;;;;;;;;;5008264;28;20072;-75
2024/01/20 02:25:16;;;;;;;15.57;8.07;;;;;;;;;;5004261;28;20116;-76
2024/01/20 02:27:42;;;;;;;23.60;8.93;;;;;;;;;;5004590;28;20050;-75
2024/01/20 02:30:08;;;;;;;21.02;9.07;;;;;;;;;;5008973;28;20345;-75
2024/01/20 02:32:34;;;;;;;18.55;9.55;;;;;;;;;;5009138;28;20690;-74
2024/01/20 02:35:00;;;;;;;16.25;9.30;;;;;;;;;;5005275;28;20116;-75
2024/01/20 02:37:26;;;;;;;22.80;9.02;;;;;;;;;;5004127;28;20030;-75
2024/01/20 02:39:53;;;;;;;23.77;9.52;;;;;;;;;;5007260;28;20458;-75
2024/01/20 02:42:19;;;;;;;24.23;9.98;;;;;;;;;;5009917;28;20033;-75
2024/01/20 02:44:45;;;;;;;20.40;9.63;;;;;;;;;;5006510;28;20033;-75
2024/01/20 02:47:11;;;;;;;17.90;10.05;;;;;;;;;;5000482;28;20048;-75
2024/01/20 02:49:37;;;;;;;16.85;11.88;;;;;;;;;;5002644;28;20038;-75
2024/01/20 02:52:03;;;;;;;21.63;11.30;;;;;;;;;;5000025;28;20050;-75
2024/01/20 02:54:29;;;;;;;20.60;11.00;;;;;;;;;;4989980;28;20030;-75
2024/01/20 02:56:55;;;;;;;19.80;12.23;;;;;;;;;;5007010;28;20122;-75
2024/01/20 02:59:21;;;;;;;27.40;12.40;;;;;;;;;;4995810;28;20476;-75
2024/01/20 03:01:47;;;;;;;22.85;13.38;;;;;;;;;;5007687;28;20037;-75
2024/01/20 03:04:16;;;;;;;27.38;14.35;;;;;;;;;;5008723;28;20041;-75
2024/01/20 03:06:42;;;;;;;28.13;14.63;;;;;;;;;;5006371;28;20054;-75
2024/01/20 03:09:08;;;;;;;25.33;13.88;;;;;;;;;;5003436;28;20061;-75
2024/01/20 03:11:37;;;;;;;26.02;14.23;;;;;;;;;;5007224;28;20038;-75
2024/01/20 03:14:03;;;;;;;28.98;14.82;;;;;;;;;;5004189;28;20141;-75
2024/01/20 03:16:29;;;;;;;32.38;17.75;;;;;;;;;;5009709;28;20030;-77
2024/01/20 03:18:55;;;;;;;34.75;17.10;;;;;;;;;;5006190;28;20042;-79
2024/01/20 03:21:21;;;;;;;25.17;15.10;;;;;;;;;;5005826;28;20034;-75
2024/01/20 03:23:47;;;;;;;27.65;16.35;;;;;;;;;;5006012;28;20091;-76
2024/01/20 03:26:13;;;;;;;29.23;17.20;;;;;;;;;;4994147;28;20046;-75
2024/01/20 03:28:40;;;;;;;29.98;15.38;;;;;;;;;;4999825;28;20038;-75
2024/01/20 03:31:07;;;;;;;23.15;15.35;;;;;;;;;;4999126;28;20033;-75
2024/01/20 03:33:33;;;;;;;25.23;15.00;;;;;;;;;;5002624;28;20399;-75
2024/01/20 03:35:59;;;;;;;30.20;15.40;;;;;;;;;;5005464;28;20045;-75
2024/01/20 03:38:25;;;;;;;27.83;16.15;;;;;;;;;;4999607;28;20041;-75
2024/01/20 03:40:51;;;;;;;28.95;15.77;;;;;;;;;;5000978;28;20527;-75
2024/01/20 03:43:17;;;;;;;22.70;15.15;;;;;;;;;;5003865;28;20050;-75
2024/01/20 03:45:44;;;;;;;29.58;16.33;;;;;;;;;;5003882;28;20044;-75
2024/01/20 03:48:10;;;;;;;26.95;17.27;;;;;;;;;;5002222;28;20117;-76
2024/01/20 03:50:36;;;;;;;25.42;16.02;;;;;;;;;;5007030;28;20037;-75
2024/01/20 03:53:02;;;;;;;28.15;16.98;;;;;;;;;;5005021;28;20451;-75
2024/01/20 03:55:28;;;;;;;27.23;15.40;;;;;;;;;;5000065;28;20022;-75
2024/01/20 03:57:54;;;;;;;28.73;16.10;;;;;;;;;;5003925;28;20080;-75
2024/01/20 04:00:20;;;;;;;30.70;16.75;;;;;;;;;;5006177;28;20112;-75
2024/01/20 04:02:46;;;;;;;23.38;15.05;;;;;;;;;;5009755;28;20422;-75
2024/01/20 04:05:12;;;;;;;26.48;15.30;;;;;;;;;;5004514;28;20561;-74
2024/01/20 04:07:39;;;;;;;26.77;15.02;;;;;;;;;;5010625;28;20049;-78
2024/01/20 04:10:05;;;;;;;27.35;16.00;;;;;;;;;;5006312;28;20112;-75
2024/01/20 04:12:31;;;;;;;28.38;15.77;;;;;;;;;;5000176;28;20120;-75
2024/01/20 04:14:57;;;;;;;29.85;17.15;;;;;;;;;;5003917;28;20038;-75
2024/01/20 04:17:23;;;;;;;29.98;15.30;;;;;;;;;;5006074;28;20032;-76
2024/01/20 04:19:49;;;;;;;30.48;15.40;;;;;;;;;;5002968;28;20134;-76
2024/01/20 04:22:15;;;;;;;29.02;15.45;;;;;;;;;;5004207;28;20463;-75
2024/01/20 04:24:41;;;;;;;29.67;18.33;;;;;;;;;;4999951;28;20471;-80
2024/01/20 04:27:07;;;;;;;28.20;17.70;;;;;;;;;;5009130;28;20515;-76
2024/01/20 04:29:33;;;;;;;25.48;16.33;;;;;;;;;;5007214;28;20044;-75
2024/01/20 04:31:59;;;;;;;26.27;15.73;;;;;;;;;;5012683;28;20057;-74
2024/01/20 04:34:25;;;;;;;29.30;15.80;;;;;;;;;;5005728;28;20038;-74
2024/01/20 04:36:51;;;;;;;35.10;16.45;;;;;;;;;;4997250;28;20030;-74
2024/01/20 04:39:17;;;;;;;27.52;15.90;;;;;;;;;;5007272;28;20038;-74
2024/01/20 04:41:43;;;;;;;30.40;16.23;;;;;;;;;;5008535;28;20502;-74
2024/01/20 04:44:09;;;;;;;33.42;17.85;;;;;;;;;;5009111;28;20113;-74
2024/01/20 04:46:35;;;;;;;25.65;15.25;;;;;;;;;;5006686;28;20069;-75
2024/01/20 04:49:01;;;;;;;32.97;17.00;;;;;;;;;;5008632;28;20041;-75
2024/01/20 04:51:27;;;;;;;25.48;15.50;;;;;;;;;;5009898;28;20041;-75
2024/01/20 04:53:53;;;;;;;33.90;16.45;;;;;;;;;;5006902;28;20044;-75
2024/01/20 04:56:20;;;;;;;33.53;16.88;;;;;;;;;;5011885;28;20426;-76
2024/01/20 04:58:46;;;;;;;36.17;16.90;;;;;;;;;;5003684;28;20057;-75
2024/01/20 05:01:12;;;;;;;30.40;16.77;;;;;;;;;;5008718;28;20037;-75
2024/01/20 05:03:38;;;;;;;33.08;17.30;;;;;;;;;;5009340;28;20038;-75
2024/01/20 05:06:06;;;;;;;33.92;17.38;;;;;;;;;;5011019;28;20046;-75
2024/01/20 05:08:32;;;;;;;35.10;17.85;;;;;;;;;;5002083;28;20034;-75
2024/01/20 05:10:58;;;;;;;31.10;19.15;;;;;;;;;;5010268;28;20127;-75
2024/01/20 05:13:24;;;;;;;32.70;18.48;;;;;;;;;;5008497;28;20125;-75
2024/01/20 05:15:50;;;;;;;35.10;18.00;;;;;;;;;;5008189;28;20038;-75
2024/01/20 05:18:16;;;;;;;32.80;18.17;;;;;;;;;;5008804;28;20044;-75
2024/01/20 05:20:42;;;;;;;30.17;17.55;;;;;;;;;;5004055;28;20030;-75
2024/01/20 05:23:08;;;;;;;33.28;18.70;;;;;;;;;;5008440;28;20030;-75
2024/01/20 05:25:34;;;;;;;31.73;17.98;;;;;;;;;;5006521;28;20033;-76
2024/01/20 05:28:00;;;;;;;38.92;19.42;;;;;;;;;;4994858;28;20042;-76
2024/01/20 05:30:26;;;;;;;32.45;19.30;;;;;;;;;;5003229;28;20041;-76
2024/01/20 05:32:52;;;;;;;33.03;17.90;;;;;;;;;;5008394;28;20045;-75
2024/01/20 05:35:18;;;;;;;31.10;18.70;;;;;;;;;;4994352;28;20038;-75
2024/01/20 05:37:45;;;;;;;35.10;18.70;;;;;;;;;;5011402;28;20032;-75
2024/01/20 05:40:11;;;;;;;32.00;18.52;;;;;;;;;;5007909;28;20080;-75
2024/01/20 05:42:37;;;;;;;35.47;19.45;;;;;;;;;;5009428;28;20038;-75
2024/01/20 05:45:04;;;;;;;33.25;18.25;;;;;;;;;;5007025;28;20029;-76
2024/01/20 05:47:30;;;;;;;39.83;19.02;;;;;;;;;;5006437;28;20124;-76
2024/01/20 05:49:56;;;;;;;40.17;20.38;;;;;;;;;;5008237;28;20030;-75
2024/01/20 05:52:22;;;;;;;37.75;19.85;;;;;;;;;;5010443;28;20049;-76
2024/01/20 05:54:48;;;;;;;38.22;19.90;;;;;;;;;;5001707;28;20049;-76
2024/01/20 05:57:14;;;;;;;36.78;19.08;;;;;;;;;;5006960;28;20030;-75
2024/01/20 05:59:40;;;;;;;40.28;19.30;;;;;;;;;;5001037;28;20033;-76
2024/01/20 06:02:07;;;;;;;44.42;19.65;;;;;;;;;;5006742;28;20042;-75
2024/01/20 06:04:33;;;;;;;41.65;19.15;;;;;;;;;;5008073;28;20603;-75
2024/01/20 06:06:59;;;;;;;38.45;19.77;;;;;;;;;;5007745;28;20068;-76
2024/01/20 06:09:25;;;;;;;37.92;20.30;;;;;;;;;;5008532;28;20037;-76
2024/01/20 06:11:51;;;;;;;35.92;18.67;;;;;;;;;;5006058;28;20045;-76
2024/01/20 06:14:17;;;;;;;43.28;19.70;;;;;;;;;;5004335;28;20080;-76
2024/01/20 06:16:43;;;;;;;44.63;20.58;;;;;;;;;;5005473;28;20042;-76
2024/01/20 06:19:09;;;;;;;41.92;19.17;;;;;;;;;;5004588;28;20045;-76
2024/01/20 06:21:35;;;;;;;40.15;18.58;;;;;;;;;;5001946;28;20065;-76
2024/01/20 06:24:02;;;;;;;38.53;19.55;;;;;;;;;;5006761;28;20034;-75
2024/01/20 06:26:28;;;;;;;36.70;18.63;;;;;;;;;;5008449;28;20419;-75
2024/01/20 06:28:54;;;;;;;38.17;18.63;;;;;;;;;;5001658;28;20388;-75
2024/01/20 06:31:23;;;;;;;41.33;19.13;;;;;;;;;;5008953;28;20395;-75
2024/01/20 06:33:49;;;;;;;41.67;19.60;;;;;;;;;;5005895;28;20034;-76
2024/01/20 06:36:16;;;;;;;38.03;19.60;;;;;;;;;;5006019;28;20026;-75
2024/01/20 06:38:42;;;;;;;31.95;18.40;;;;;;;;;;5007303;28;20034;-75
2024/01/20 06:41:08;;;;;;;37.55;17.58;;;;;;;;;;5001038;28;20105;-75
2024/01/20 06:43:34;;;;;;;34.45;19.05;;;;;;;;;;4997436;28;20041;-75
2024/01/20 06:46:00;;;;;;;40.15;17.63;;;;;;;;;;5002285;28;20025;-75
2024/01/20 06:48:32;;;;;;;37.67;18.05;;;;;;;;;;5008232;28;20030;-75
2024/01/20 06:50:59;;;;;;;45.25;18.92;;;;;;;;;;5002009;28;20610;-75
2024/01/20 06:53:26;;;;;;;38.50;19.60;;;;;;;;;;5004315;28;20038;-75
2024/01/20 06:55:52;;;;;;;38.10;18.50;;;;;;;;;;5005216;28;20033;-75
2024/01/20 06:58:18;;;;;;;40.15;19.67;;;;;;;;;;5003920;28;20080;-75
2024/01/20 07:00:44;;;;;;;38.38;19.55;;;;;;;;;;5007809;28;20415;-75
2024/01/20 07:03:10;;;;;;;41.88;18.60;;;;;;;;;;5001498;28;20368;-75
2024/01/20 07:05:36;;;;;;;44.85;19.92;;;;;;;;;;4988148;28;20584;-75
2024/01/20 07:08:03;;;;;;;41.22;18.77;;;;;;;;;;5005488;28;20038;-75
2024/01/20 07:10:29;;;;;;;38.80;20.60;;;;;;;;;;5000095;28;20035;-75
2024/01/20 07:12:55;;;;;;;34.25;19.83;;;;;;;;;;5009724;28;20038;-75
2024/01/20 07:15:21;;;;;;;42.17;21.42;;;;;;;;;;5005298;28;20463;-75
2024/01/20 07:17:47;;;;;;;45.17;22.45;;;;;;;;;;5005232;28;20479;-76
2024/01/20 07:20:13;;;;;;;39.78;19.30;;;;;;;;;;5007795;28;20160;-75
2024/01/20 07:22:41;;;;;;;43.83;20.50;;;;;;;;;;5000924;28;20128;-75
2024/01/20 07:25:07;;;;;;;38.90;19.73;;;;;;;;;;5001211;28;20042;-75
2024/01/20 07:27:33;;;;;;;44.65;22.17;;;;;;;;;;5010625;28;20053;-75
2024/01/20 07:30:00;;;;;;;41.05;21.23;;;;;;;;;;5009164;28;20034;-75
2024/01/20 07:32:26;;;;;;;45.05;20.27;;;;;;;;;;5006593;28;20049;-75
2024/01/20 07:34:52;;;;;;;48.97;21.13;;;;;;;;;;5008479;28;20075;-75
2024/01/20 07:37:18;;;;;;;47.88;20.70;;;;;;;;;;5005406;28;20034;-76
2024/01/20 07:39:46;;;;;;;43.13;20.15;;;;;;;;;;4997928;28;20030;-76
2024/01/20 07:42:13;;;;;;;37.28;19.38;;;;;;;;;;5003657;28;20099;-76
2024/01/20 07:44:39;;;;;;;37.00;19.85;;;;;;;;;;5020483;28;20541;-76
2024/01/20 07:47:05;;;;;;;35.17;19.70;;;;;;;;;;5001680;28;20037;-76
2024/01/20 07:49:31;;;;;;;41.53;21.00;;;;;;;;;;5008502;28;20084;-75
2024/01/20 07:51:57;;;;;;;42.28;20.25;;;;;;;;;;5006574;28;20046;-76
2024/01/20 07:54:23;;;;;;;41.78;19.25;;;;;;;;;;5005437;28;20026;-76
2024/01/20 07:56:49;;;;;;;34.42;20.40;;;;;;;;;;5001414;28;20527;-76
2024/01/20 07:59:16;;;;;;;42.28;21.42;;;;;;;;;;5000275;28;20386;-76
2024/01/20 08:01:42;;;;;;;40.15;22.35;;;;;;;;;;5006108;28;20046;-75
2024/01/20 08:04:08;;;;;;;57.63;24.55;;;;;;;;;;5005061;28;20029;-74
2024/01/20 08:06:37;;;;;;;47.92;24.90;;;;;;;;;;5001043;28;20025;-74
2024/01/20 08:09:04;;;;;;;38.35;22.08;;;;;;;;;;4998591;28;20022;-75
2024/01/20 08:11:30;;;;;;;43.75;23.02;;;;;;;;;;4996672;28;20229;-74
2024/01/20 08:13:56;;;;;;;42.00;22.70;;;;;;;;;;4999246;28;20033;-76
2024/01/20 08:16:28;;;;;;;47.83;24.05;;;;;;;;;;5004270;28;20401;-79
2024/01/20 08:18:58;;;;;;;49.08;27.40;;;;;;;;;;5005875;28;20026;-77
2024/01/20 08:21:25;;;;;;;43.83;21.83;;;;;;;;;;4990941;28;20050;-76
2024/01/20 08:23:51;;;;;;;40.47;22.52;;;;;;;;;;4996073;28;20483;-75
2024/01/20 08:26:17;;;;;;;45.88;21.67;;;;;;;;;;5000072;28;21811;-75
2024/01/20 08:28:43;;;;;;;45.53;23.75;;;;;;;;;;4998386;28;20038;-75
2024/01/20 08:31:09;;;;;;;41.45;20.75;;;;;;;;;;5005317;28;20037;-75
2024/01/20 08:33:36;;;;;;;42.88;21.60;;;;;;;;;;5001549;28;20022;-75
2024/01/20 08:36:02;;;;;;;40.05;22.33;;;;;;;;;;5009511;28;20041;-75
2024/01/20 08:38:28;;;;;;;45.63;21.52;;;;;;;;;;5007823;28;20091;-76
2024/01/20 08:40:54;;;;;;;44.22;21.67;;;;;;;;;;5004646;28;20100;-74
2024/01/20 08:43:20;;;;;;;39.35;21.05;;;;;;;;;;5009910;28;20030;-75
2024/01/20 08:45:46;;;;;;;45.33;21.80;;;;;;;;;;5017174;28;20034;-75
2024/01/20 08:48:12;;;;;;;45.50;21.90;;;;;;;;;;5027566;28;20113;-74
2024/01/20 08:50:38;;;;;;;41.38;20.65;;;;;;;;;;5013496;28;20561;-74
2024/01/20 08:53:04;;;;;;;63.72;31.35;;;;;;;;;;5009193;28;20072;-79
2024/01/20 08:55:30;;;;;;;40.67;21.13;;;;;;;;;;5015325;28;20021;-75
2024/01/20 08:57:57;;;;;;;40.33;20.70;;;;;;;;;;5019807;28;20050;-74
2024/01/20 09:00:23;;;;;;;38.78;19.58;;;;;;;;;;5012408;28;20030;-76
2024/01/20 09:02:50;;;;;;;37.45;19.60;;;;;;;;;;5024718;28;20398;-76
2024/01/20 09:05:17;;;;;;;38.15;19.80;;;;;;;;;;5010780;28;20092;-75
2024/01/20 09:07:44;;;;;;;33.63;19.77;;;;;;;;;;5005573;28;20602;-75
2024/01/20 09:10:10;;;;;;;45.47;20.45;;;;;;;;;;5007055;28;20026;-74
2024/01/20 09:12:36;;;;;;;50.63;20.67;;;;;;;;;;4995545;28;20087;-74
2024/01/20 09:15:02;;;;;;;40.47;19.38;;;;;;;;;;4997590;28;20034;-74
2024/01/20 09:17:28;;;;;;;38.92;19.02;;;;;;;;;;5003970;28;20026;-75
2024/01/20 09:19:54;;;;;;;41.15;19.02;;;;;;;;;;5001968;28;20080;-75
2024/01/20 09:22:20;;;;;;;38.65;18.48;;;;;;;;;;5004701;28;20040;-84
2024/01/20 09:24:46;;;;;;;33.17;18.65;;;;;;;;;;4998894;28;20041;-75
2024/01/20 09:27:12;;;;;;;36.60;18.48;;;;;;;;;;4998749;28;20050;-82
2024/01/20 10:11:12;;;;;;;33.63;17.08;;;;;;;;;;5832403;23;20119;-83
2024/01/20 10:13:38;;;;;;;36.20;17.25;;;;;;;;;;5000963;28;20430;-80
2024/01/20 10:16:04;;;;;;;40.65;17.55;;;;;;;;;;5012907;28;20034;-82
2024/01/20 10:18:30;;;;;;;35.13;19.13;;;;;;;;;;5009631;28;20060;-82
2024/01/20 10:21:03;;;;;;;38.20;17.10;;;;;;;;;;5007357;28;20040;-81
2024/01/20 10:23:29;;;;;;;41.55;22.95;;;;;;;;;;5009747;28;20620;-81
2024/01/20 10:26:06;;;;;;;35.88;18.50;;;;;;;;;;5006373;28;20038;-81
2024/01/20 10:28:32;;;;;;;35.55;17.67;;;;;;;;;;5003385;28;20387;-83
2024/01/20 10:30:59;;;;;;;33.72;16.42;;;;;;;;;;5003697;28;20456;-82
2024/01/20 10:33:25;;;;;;;28.35;16.30;;;;;;;;;;5005218;28;20095;-81
2024/01/20 10:35:54;;;;;;;30.60;16.10;;;;;;;;;;5007605;28;20461;-80
2024/01/20 10:38:21;;;;;;;31.55;15.50;;;;;;;;;;5006854;28;20541;-80
2024/01/20 10:40:51;;;;;;;31.20;16.65;;;;;;;;;;5007125;28;20072;-82
2024/01/20 10:43:17;;;;;;;32.10;17.77;;;;;;;;;;5003449;28;20431;-81
2024/01/20 10:46:09;;;;;;;61.22;25.85;;;;;;;;;;5014568;28;20022;-81
2024/01/20 10:48:37;;;;;;;35.28;18.08;;;;;;;;;;5014283;28;20034;-82
2024/01/20 10:51:07;;;;;;;36.78;17.65;;;;;;;;;;5003606;28;20042;-86
2024/01/20 10:53:34;;;;;;;34.55;18.77;;;;;;;;;;5004482;28;20042;-81
2024/01/20 10:56:01;;;;;;;34.85;18.38;;;;;;;;;;5008362;28;20471;-80
2024/01/20 10:58:36;;;;;;;42.65;21.17;;;;;;;;;;5007441;28;20558;-79
2024/01/20 11:01:02;;;;;;;49.42;22.25;;;;;;;;;;5009720;28;20454;-78
2024/01/20 11:03:28;;;;;;;40.20;19.85;;;;;;;;;;5007854;28;20128;-80
2024/01/20 11:05:54;;;;;;;80.93;32.88;;;;;;;;;;5006127;28;20371;-80
2024/01/20 11:08:24;;;;;;;45.67;21.48;;;;;;;;;;5007783;28;20484;-80
2024/01/20 11:10:51;;;;;;;59.28;25.13;;;;;;;;;;5006827;28;20072;-81
2024/01/20 11:13:18;;;;;;;80.03;26.92;;;;;;;;;;5007037;28;20046;-81
2024/01/20 11:15:49;;;;;;;38.05;21.10;;;;;;;;;;5012064;28;20037;-81
2024/01/20 11:18:17;;;;;;;47.42;22.40;;;;;;;;;;5005376;28;20115;-81
2024/01/20 11:20:53;;;;;;;40.03;22.35;;;;;;;;;;5006275;28;20506;-81
2024/01/20 11:23:19;;;;;;;45.63;22.58;;;;;;;;;;4996523;28;20034;-80
2024/01/20 11:25:45;;;;;;;41.03;21.25;;;;;;;;;;5002314;28;20036;-80
2024/01/20 11:28:22;;;;;;;43.47;22.67;;;;;;;;;;5008861;28;20355;-81
2024/01/20 11:30:48;;;;;;;42.17;23.38;;;;;;;;;;5005197;28;20041;-80
2024/01/20 11:33:15;;;;;;;48.30;23.90;;;;;;;;;;5000880;28;20365;-79
2024/01/20 11:35:41;;;;;;;41.72;21.38;;;;;;;;;;5005672;28;20538;-81
2024/01/20 11:38:08;;;;;;;42.33;23.20;;;;;;;;;;5002983;28;20041;-81
2024/01/20 11:40:34;;;;;;;48.83;25.15;;;;;;;;;;5007103;28;20036;-82
2024/01/20 11:43:06;;;;;;;45.03;23.60;;;;;;;;;;5004706;28;20403;-81
2024/01/20 11:45:33;;;;;;;43.78;22.75;;;;;;;;;;5006966;28;20060;-81
2024/01/20 11:47:59;;;;;;;45.17;26.45;;;;;;;;;;5001559;28;20026;-82
2024/01/20 11:50:25;;;;;;;42.13;22.40;;;;;;;;;;5003405;28;20033;-80
2024/01/20 11:52:52;;;;;;;42.63;25.08;;;;;;;;;;5008165;28;20038;-80
2024/01/20 11:55:18;;;;;;;42.35;22.67;;;;;;;;;;5005957;28;20042;-81
2024/01/20 11:57:44;;;;;;;39.92;22.63;;;;;;;;;;5002834;28;20038;-81
2024/01/20 12:00:11;;;;;;;39.22;22.17;;;;;;;;;;4994267;28;20398;-81
2024/01/20 12:02:37;;;;;;;43.15;21.98;;;;;;;;;;5010741;28;20466;-79
2024/01/20 12:05:04;;;;;;;41.92;21.70;;;;;;;;;;5003189;28;20022;-80
2024/01/20 12:07:30;;;;;;;41.28;20.30;;;;;;;;;;5008245;28;20383;-80
2024/01/20 12:09:57;;;;;;;33.17;18.75;;;;;;;;;;5011270;28;20049;-81
2024/01/20 12:12:23;;;;;;;42.80;21.98;;;;;;;;;;5004161;28;20054;-83
2024/01/20 12:14:50;;;;;;;36.03;19.15;;;;;;;;;;5012481;28;20549;-84
2024/01/20 12:17:16;;;;;;;44.17;22.55;;;;;;;;;;5003807;28;20369;-78
2024/01/20 12:19:42;;;;;;;31.85;18.35;;;;;;;;;;5009902;28;20419;-82
2024/01/20 12:22:14;;;;;;;38.35;18.50;;;;;;;;;;5000759;28;20031;-82
2024/01/20 12:24:40;;;;;;;;;;;;;;;;;;5010252;28;20033;-82
2024/01/20 12:27:07;;;;;;;34.70;17.77;;;;;;;;;;5009114;28;19914;-81
2024/01/20 12:29:33;;;;;;;38.03;19.05;;;;;;;;;;5009426;28;20037;-80
2024/01/20 12:31:59;;;;;;;40.50;21.55;;;;;;;;;;5012989;28;20598;-79
2024/01/20 12:34:26;;;;;;;38.17;18.30;;;;;;;;;;5011853;28;20530;-80
2024/01/20 12:36:58;;;;;;;32.90;17.20;;;;;;;;;;5005964;28;20019;-80
2024/01/20 12:39:24;;;;;;;26.73;16.33;;;;;;;;;;5000743;28;20040;-81
2024/01/20 12:41:51;;;;;;;29.75;15.93;;;;;;;;;;5009302;28;20081;-81
2024/01/20 12:44:18;;;;;;;28.40;16.40;;;;;;;;;;5004894;28;20092;-81
2024/01/20 12:46:44;;;;;;;24.27;14.25;;;;;;;;;;5014887;28;20475;-82
2024/01/20 12:49:10;;;;;;;29.13;16.60;;;;;;;;;;5010641;28;20478;-82
2024/01/20 12:51:36;;;;;;;24.75;15.75;;;;;;;;;;5011674;28;20330;-83
2024/01/20 12:54:03;;;;;;;29.38;15.57;;;;;;;;;;4998662;28;20113;-82
2024/01/20 12:56:29;;;;;;;32.50;16.65;;;;;;;;;;5002512;28;20025;-82
2024/01/20 12:58:56;;;;;;;27.67;13.90;;;;;;;;;;5011182;28;20030;-80
2024/01/20 13:01:23;;;;;;;24.55;13.30;;;;;;;;;;5012806;28;20636;-81
2024/01/20 13:03:49;;;;;;;23.83;14.25;;;;;;;;;;5010531;28;20041;-85
2024/01/20 13:06:15;;;;;;;25.20;13.88;;;;;;;;;;5004094;28;20494;-81
2024/01/20 13:08:42;;;;;;;24.02;14.27;;;;;;;;;;5003886;28;20034;-80
2024/01/20 13:11:08;;;;;;;23.25;12.68;;;;;;;;;;5010497;28;20038;-81
2024/01/20 13:13:34;;;;;;;26.52;12.10;;;;;;;;;;5009045;28;20033;-81
2024/01/20 13:16:00;;;;;;;26.23;13.82;;;;;;;;;;5009562;28;20040;-80
2024/01/20 13:18:26;;;;;;;23.65;12.27;;;;;;;;;;5010583;28;20097;-82
2024/01/20 13:20:52;;;;;;;24.13;13.20;;;;;;;;;;5009851;28;20422;-81
2024/01/20 13:23:18;;;;;;;25.08;13.13;;;;;;;;;;5002189;28;20367;-79
2024/01/20 13:25:44;;;;;;;28.92;12.55;;;;;;;;;;5004390;28;20029;-83
2024/01/20 13:28:13;;;;;;;20.30;11.50;;;;;;;;;;5004266;28;20495;-81
2024/01/20 13:30:39;;;;;;;19.45;11.40;;;;;;;;;;5013286;28;20026;-82
2024/01/20 13:33:05;;;;;;;20.75;11.13;;;;;;;;;;5011181;28;20116;-82
2024/01/20 13:35:31;;;;;;;22.35;10.93;;;;;;;;;;5007413;28;20030;-81
2024/01/20 13:37:57;;;;;;;20.75;10.60;;;;;;;;;;5005438;28;20034;-80
2024/01/20 13:40:23;;;;;;;19.52;10.57;;;;;;;;;;5006834;28;20030;-83
2024/01/20 13:42:49;;;;;;;22.40;12.45;;;;;;;;;;5007789;28;20621;-81
2024/01/20 13:45:15;;;;;;;19.73;9.52;;;;;;;;;;5010946;28;20056;-82
2024/01/20 13:47:41;;;;;;;65.82;33.45;;;;;;;;;;5021161;28;20387;-79
2024/01/20 13:50:08;;;;;;;24.98;14.25;;;;;;;;;;5007997;28;20509;-80
2024/01/20 13:52:34;;;;;;;21.73;10.30;;;;;;;;;;5009399;28;20041;-81
2024/01/20 13:55:00;;;;;;;23.17;10.75;;;;;;;;;;5004341;28;20021;-80
2024/01/20 13:57:26;;;;;;;19.70;10.27;;;;;;;;;;5009269;28;20034;-81
2024/01/20 13:59:52;;;;;;;21.27;9.80;;;;;;;;;;5006199;28;20124;-79
2024/01/20 14:02:18;;;;;;;19.70;10.00;;;;;;;;;;5008797;28;20040;-80
2024/01/20 14:04:45;;;;;;;18.05;10.20;;;;;;;;;;5009955;28;20030;-79
2024/01/20 14:07:11;;;;;;;18.05;9.65;;;;;;;;;;5006326;28;20029;-81
2024/01/20 14:09:37;;;;;;;19.20;10.35;;;;;;;;;;5007984;28;20643;-84
2024/01/20 14:12:04;;;;;;;19.35;9.05;;;;;;;;;;5007986;28;20085;-80
2024/01/20 14:14:30;;;;;;;17.35;9.57;;;;;;;;;;5009962;28;20037;-80
2024/01/20 14:16:56;;;;;;;18.13;9.23;;;;;;;;;;5007411;28;20613;-82
2024/01/20 14:19:23;;;;;;;17.52;8.27;;;;;;;;;;5009577;28;20018;-84
2024/01/20 14:21:49;;;;;;;15.68;8.68;;;;;;;;;;5008047;28;20026;-80
2024/01/20 14:24:15;;;;;;;14.07;9.25;;;;;;;;;;5000749;28;20033;-80
2024/01/20 14:26:41;;;;;;;14.35;8.45;;;;;;;;;;4997113;28;20029;-79
2024/01/20 14:29:08;;;;;;;16.60;8.20;;;;;;;;;;4999174;28;20546;-81
2024/01/20 14:31:48;;;;;;;15.30;7.85;;;;;;;;;;5005449;28;20096;-79
2024/01/20 14:34:14;;;;;;;13.35;8.25;;;;;;;;;;5002332;28;20395;-79
2024/01/20 14:36:41;;;;;;;13.13;7.63;;;;;;;;;;4996319;28;20110;-79
2024/01/20 14:39:07;;;;;;;14.65;7.70;;;;;;;;;;5004198;28;20014;-78
2024/01/20 14:41:33;;;;;;;12.10;7.40;;;;;;;;;;4993465;28;20101;-78
2024/01/20 14:43:59;;;;;;;13.32;7.88;;;;;;;;;;5001952;28;20030;-78
2024/01/20 14:46:26;;;;;;;14.13;7.60;;;;;;;;;;5002712;28;20554;-79
2024/01/20 14:48:52;;;;;;;10.50;7.15;;;;;;;;;;5000957;28;20034;-80
2024/01/20 14:51:21;;;;;;;15.52;7.90;;;;;;;;;;4999436;28;20042;-84
2024/01/20 14:53:47;;;;;;;15.10;7.80;;;;;;;;;;5000438;28;20069;-80
2024/01/20 14:56:13;;;;;;;14.15;7.70;;;;;;;;;;4999312;28;20499;-78
2024/01/20 14:58:39;;;;;;;15.57;8.35;;;;;;;;;;4994203;28;20049;-81